sensor_id;sensor_type;location;lat;lon;timestamp;P1;durP1;ratioP1;P2;durP2;ratioP2
59790;SDS011;47431;51.640;5.554;2022-09-09T00:04:27;8.02;;;3.00;;
59790;SDS011;47431;51.640;5.554;2022-09-09T00:12:12;13.02;;;3.05;;
59790;SDS011;47431;51.640;5.554;2022-09-09T00:20:09;7.82;;;4.13;;
59790;SDS011;47431;51.640;5.554;2022-09-09T00:22:37;11.07;;;3.80;;
59790;SDS011;47431;51.640;5.554;2022-09-09T00:25:12;9.95;;;4.15;;
59790;SDS011;47431;51.640;5.554;2022-09-09T00:27:44;8.32;;;3.97;;
59790;SDS011;47431;51.640;5.554;2022-09-09T00:30:23;14.35;;;3.78;;
59790;SDS011;47431;51.640;5.554;2022-09-09T00:32:50;6.53;;;3.70;;
59790;SDS011;47431;51.640;5.554;2022-09-09T00:35:17;5.80;;;3.60;;
59790;SDS011;47431;51.640;5.554;2022-09-09T00:37:43;8.48;;;4.10;;
59790;SDS011;47431;51.640;5.554;2022-09-09T00:40:18;6.82;;;3.85;;
59790;SDS011;47431;51.640;5.554;2022-09-09T00:42:44;11.55;;;5.20;;
59790;SDS011;47431;51.640;5.554;2022-09-09T00:50:28;5.22;;;3.70;;
59790;SDS011;47431;51.640;5.554;2022-09-09T00:58:23;10.73;;;4.50;;
59790;SDS011;47431;51.640;5.554;2022-09-09T01:00:52;9.57;;;4.13;;
59790;SDS011;47431;51.640;5.554;2022-09-09T01:03:30;8.07;;;4.40;;
59790;SDS011;47431;51.640;5.554;2022-09-09T01:06:01;8.32;;;3.85;;
59790;SDS011;47431;51.640;5.554;2022-09-09T01:10:55;9.52;;;3.78;;
59790;SDS011;47431;51.640;5.554;2022-09-09T01:13:29;7.95;;;3.95;;
59790;SDS011;47431;51.640;5.554;2022-09-09T01:27:15;12.88;;;4.57;;
59790;SDS011;47431;51.640;5.554;2022-09-09T01:29:42;9.25;;;3.80;;
59790;SDS011;47431;51.640;5.554;2022-09-09T01:34:51;14.38;;;3.40;;
59790;SDS011;47431;51.640;5.554;2022-09-09T01:37:16;7.53;;;3.95;;
59790;SDS011;47431;51.640;5.554;2022-09-09T01:39:42;11.70;;;4.03;;
59790;SDS011;47431;51.640;5.554;2022-09-09T01:42:09;7.05;;;3.25;;
59790;SDS011;47431;51.640;5.554;2022-09-09T01:44:35;9.68;;;3.20;;
59790;SDS011;47431;51.640;5.554;2022-09-09T01:47:00;11.90;;;3.85;;
59790;SDS011;47431;51.640;5.554;2022-09-09T01:49:26;9.45;;;4.18;;
59790;SDS011;47431;51.640;5.554;2022-09-09T01:51:55;13.50;;;4.18;;
59790;SDS011;47431;51.640;5.554;2022-09-09T01:54:21;9.95;;;4.63;;
59790;SDS011;47431;51.640;5.554;2022-09-09T01:57:08;9.38;;;3.53;;
59790;SDS011;47431;51.640;5.554;2022-09-09T02:02:10;6.95;;;3.42;;
59790;SDS011;47431;51.640;5.554;2022-09-09T02:04:38;11.88;;;3.90;;
59790;SDS011;47431;51.640;5.554;2022-09-09T02:07:04;11.52;;;4.28;;
59790;SDS011;47431;51.640;5.554;2022-09-09T02:09:30;14.60;;;4.50;;
59790;SDS011;47431;51.640;5.554;2022-09-09T02:11:57;5.75;;;3.22;;
59790;SDS011;47431;51.640;5.554;2022-09-09T02:14:27;7.72;;;4.00;;
59790;SDS011;47431;51.640;5.554;2022-09-09T02:16:55;9.65;;;4.80;;
59790;SDS011;47431;51.640;5.554;2022-09-09T02:21:50;12.93;;;3.65;;
59790;SDS011;47431;51.640;5.554;2022-09-09T02:24:17;12.95;;;4.22;;
59790;SDS011;47431;51.640;5.554;2022-09-09T02:26:42;11.15;;;4.13;;
59790;SDS011;47431;51.640;5.554;2022-09-09T02:29:14;9.30;;;4.32;;
59790;SDS011;47431;51.640;5.554;2022-09-09T02:31:40;9.57;;;4.95;;
59790;SDS011;47431;51.640;5.554;2022-09-09T02:34:06;7.80;;;3.65;;
59790;SDS011;47431;51.640;5.554;2022-09-09T02:36:35;9.38;;;3.45;;
59790;SDS011;47431;51.640;5.554;2022-09-09T02:39:02;9.48;;;3.50;;
59790;SDS011;47431;51.640;5.554;2022-09-09T02:41:30;12.20;;;4.07;;
59790;SDS011;47431;51.640;5.554;2022-09-09T02:43:56;7.20;;;3.80;;
59790;SDS011;47431;51.640;5.554;2022-09-09T02:48:52;10.72;;;4.52;;
59790;SDS011;47431;51.640;5.554;2022-09-09T02:56:40;10.95;;;4.43;;
59790;SDS011;47431;51.640;5.554;2022-09-09T02:59:06;12.82;;;3.92;;
59790;SDS011;47431;51.640;5.554;2022-09-09T03:01:32;9.70;;;4.28;;
59790;SDS011;47431;51.640;5.554;2022-09-09T03:03:57;8.23;;;4.45;;
59790;SDS011;47431;51.640;5.554;2022-09-09T03:06:22;12.75;;;4.63;;
59790;SDS011;47431;51.640;5.554;2022-09-09T03:08:48;9.68;;;4.28;;
59790;SDS011;47431;51.640;5.554;2022-09-09T03:11:14;16.27;;;4.78;;
59790;SDS011;47431;51.640;5.554;2022-09-09T03:13:40;9.15;;;4.82;;
59790;SDS011;47431;51.640;5.554;2022-09-09T03:16:05;9.05;;;4.20;;
59790;SDS011;47431;51.640;5.554;2022-09-09T03:18:30;8.77;;;3.80;;
59790;SDS011;47431;51.640;5.554;2022-09-09T03:20:57;7.43;;;3.85;;
59790;SDS011;47431;51.640;5.554;2022-09-09T03:23:22;14.70;;;4.07;;
59790;SDS011;47431;51.640;5.554;2022-09-09T03:25:48;15.45;;;5.25;;
59790;SDS011;47431;51.640;5.554;2022-09-09T03:28:13;8.98;;;4.07;;
59790;SDS011;47431;51.640;5.554;2022-09-09T03:30:39;10.50;;;4.00;;
59790;SDS011;47431;51.640;5.554;2022-09-09T03:33:04;11.07;;;4.63;;
59790;SDS011;47431;51.640;5.554;2022-09-09T03:35:29;8.98;;;4.32;;
59790;SDS011;47431;51.640;5.554;2022-09-09T03:37:54;11.32;;;4.32;;
59790;SDS011;47431;51.640;5.554;2022-09-09T03:40:20;11.82;;;4.82;;
59790;SDS011;47431;51.640;5.554;2022-09-09T03:42:46;9.80;;;5.03;;
59790;SDS011;47431;51.640;5.554;2022-09-09T03:45:11;11.95;;;4.88;;
59790;SDS011;47431;51.640;5.554;2022-09-09T03:47:36;7.65;;;4.53;;
59790;SDS011;47431;51.640;5.554;2022-09-09T03:50:02;16.02;;;4.40;;
59790;SDS011;47431;51.640;5.554;2022-09-09T03:52:29;15.55;;;5.22;;
59790;SDS011;47431;51.640;5.554;2022-09-09T03:54:54;8.60;;;4.85;;
59790;SDS011;47431;51.640;5.554;2022-09-09T03:57:20;14.48;;;5.50;;
59790;SDS011;47431;51.640;5.554;2022-09-09T03:59:46;10.93;;;4.40;;
59790;SDS011;47431;51.640;5.554;2022-09-09T04:02:11;11.93;;;4.25;;
59790;SDS011;47431;51.640;5.554;2022-09-09T04:04:36;14.15;;;5.00;;
59790;SDS011;47431;51.640;5.554;2022-09-09T04:07:02;11.35;;;3.97;;
59790;SDS011;47431;51.640;5.554;2022-09-09T04:09:27;11.70;;;4.05;;
59790;SDS011;47431;51.640;5.554;2022-09-09T04:11:52;14.05;;;5.82;;
59790;SDS011;47431;51.640;5.554;2022-09-09T04:14:18;10.25;;;4.50;;
59790;SDS011;47431;51.640;5.554;2022-09-09T04:16:43;14.48;;;4.78;;
59790;SDS011;47431;51.640;5.554;2022-09-09T04:19:09;7.90;;;4.13;;
59790;SDS011;47431;51.640;5.554;2022-09-09T04:21:37;11.15;;;4.25;;
59790;SDS011;47431;51.640;5.554;2022-09-09T04:24:02;12.45;;;4.05;;
59790;SDS011;47431;51.640;5.554;2022-09-09T04:26:27;17.75;;;4.70;;
59790;SDS011;47431;51.640;5.554;2022-09-09T04:28:52;12.45;;;4.50;;
59790;SDS011;47431;51.640;5.554;2022-09-09T04:31:21;14.82;;;4.30;;
59790;SDS011;47431;51.640;5.554;2022-09-09T04:33:48;17.35;;;5.53;;
59790;SDS011;47431;51.640;5.554;2022-09-09T04:36:14;18.02;;;4.45;;
59790;SDS011;47431;51.640;5.554;2022-09-09T04:38:39;8.60;;;4.22;;
59790;SDS011;47431;51.640;5.554;2022-09-09T04:41:05;11.52;;;4.55;;
59790;SDS011;47431;51.640;5.554;2022-09-09T04:43:30;13.30;;;4.20;;
59790;SDS011;47431;51.640;5.554;2022-09-09T04:45:55;12.65;;;4.60;;
59790;SDS011;47431;51.640;5.554;2022-09-09T04:48:21;9.20;;;4.55;;
59790;SDS011;47431;51.640;5.554;2022-09-09T04:50:56;12.38;;;4.95;;
59790;SDS011;47431;51.640;5.554;2022-09-09T04:53:21;10.35;;;4.95;;
59790;SDS011;47431;51.640;5.554;2022-09-09T04:55:47;11.65;;;4.97;;
59790;SDS011;47431;51.640;5.554;2022-09-09T04:58:12;7.20;;;4.30;;
59790;SDS011;47431;51.640;5.554;2022-09-09T05:00:38;12.90;;;4.45;;
59790;SDS011;47431;51.640;5.554;2022-09-09T05:03:04;14.07;;;4.43;;
59790;SDS011;47431;51.640;5.554;2022-09-09T05:05:29;15.82;;;4.03;;
59790;SDS011;47431;51.640;5.554;2022-09-09T05:08:00;12.88;;;4.03;;
59790;SDS011;47431;51.640;5.554;2022-09-09T05:10:25;18.58;;;5.22;;
59790;SDS011;47431;51.640;5.554;2022-09-09T05:12:54;10.48;;;4.78;;
59790;SDS011;47431;51.640;5.554;2022-09-09T05:15:19;17.13;;;5.75;;
59790;SDS011;47431;51.640;5.554;2022-09-09T05:17:46;9.77;;;4.80;;
59790;SDS011;47431;51.640;5.554;2022-09-09T05:20:11;14.05;;;4.03;;
59790;SDS011;47431;51.640;5.554;2022-09-09T05:22:37;15.18;;;4.50;;
59790;SDS011;47431;51.640;5.554;2022-09-09T05:25:02;9.93;;;4.82;;
59790;SDS011;47431;51.640;5.554;2022-09-09T05:27:27;10.52;;;4.30;;
59790;SDS011;47431;51.640;5.554;2022-09-09T05:29:53;17.88;;;4.78;;
59790;SDS011;47431;51.640;5.554;2022-09-09T05:32:18;17.20;;;4.40;;
59790;SDS011;47431;51.640;5.554;2022-09-09T05:34:43;10.20;;;4.65;;
59790;SDS011;47431;51.640;5.554;2022-09-09T05:37:08;12.13;;;4.50;;
59790;SDS011;47431;51.640;5.554;2022-09-09T05:39:34;10.82;;;4.55;;
59790;SDS011;47431;51.640;5.554;2022-09-09T05:42:01;28.52;;;5.13;;
59790;SDS011;47431;51.640;5.554;2022-09-09T05:44:27;12.85;;;3.83;;
59790;SDS011;47431;51.640;5.554;2022-09-09T05:46:52;8.00;;;3.90;;
59790;SDS011;47431;51.640;5.554;2022-09-09T05:49:19;26.83;;;5.10;;
59790;SDS011;47431;51.640;5.554;2022-09-09T05:51:44;12.55;;;3.95;;
59790;SDS011;47431;51.640;5.554;2022-09-09T05:54:09;15.70;;;4.28;;
59790;SDS011;47431;51.640;5.554;2022-09-09T05:56:34;10.60;;;4.30;;
59790;SDS011;47431;51.640;5.554;2022-09-09T05:59:00;12.38;;;4.28;;
59790;SDS011;47431;51.640;5.554;2022-09-09T06:01:27;8.02;;;3.92;;
59790;SDS011;47431;51.640;5.554;2022-09-09T06:03:52;17.27;;;4.88;;
59790;SDS011;47431;51.640;5.554;2022-09-09T06:06:21;14.50;;;5.18;;
59790;SDS011;47431;51.640;5.554;2022-09-09T06:08:48;11.93;;;4.88;;
59790;SDS011;47431;51.640;5.554;2022-09-09T06:11:17;9.13;;;4.65;;
59790;SDS011;47431;51.640;5.554;2022-09-09T06:13:42;14.20;;;4.75;;
59790;SDS011;47431;51.640;5.554;2022-09-09T06:16:12;17.58;;;6.07;;
59790;SDS011;47431;51.640;5.554;2022-09-09T06:18:38;15.52;;;3.63;;
59790;SDS011;47431;51.640;5.554;2022-09-09T06:21:04;15.07;;;5.10;;
59790;SDS011;47431;51.640;5.554;2022-09-09T06:23:29;13.35;;;4.85;;
59790;SDS011;47431;51.640;5.554;2022-09-09T06:26:29;14.05;;;5.22;;
59790;SDS011;47431;51.640;5.554;2022-09-09T06:28:47;14.48;;;4.65;;
59790;SDS011;47431;51.640;5.554;2022-09-09T06:31:13;16.70;;;5.10;;
59790;SDS011;47431;51.640;5.554;2022-09-09T06:33:39;21.17;;;5.35;;
59790;SDS011;47431;51.640;5.554;2022-09-09T06:36:06;15.68;;;4.10;;
59790;SDS011;47431;51.640;5.554;2022-09-09T06:38:32;16.38;;;4.32;;
59790;SDS011;47431;51.640;5.554;2022-09-09T06:40:58;15.75;;;4.82;;
59790;SDS011;47431;51.640;5.554;2022-09-09T06:43:24;13.98;;;5.00;;
59790;SDS011;47431;51.640;5.554;2022-09-09T06:45:59;14.52;;;4.68;;
59790;SDS011;47431;51.640;5.554;2022-09-09T06:48:25;18.65;;;6.05;;
59790;SDS011;47431;51.640;5.554;2022-09-09T06:50:51;21.45;;;4.72;;
59790;SDS011;47431;51.640;5.554;2022-09-09T06:53:24;17.58;;;5.00;;
59790;SDS011;47431;51.640;5.554;2022-09-09T06:55:49;12.02;;;5.07;;
59790;SDS011;47431;51.640;5.554;2022-09-09T06:58:15;16.17;;;4.82;;
59790;SDS011;47431;51.640;5.554;2022-09-09T07:00:40;11.63;;;4.35;;
59790;SDS011;47431;51.640;5.554;2022-09-09T07:03:05;12.30;;;3.97;;
59790;SDS011;47431;51.640;5.554;2022-09-09T07:05:31;14.23;;;4.57;;
59790;SDS011;47431;51.640;5.554;2022-09-09T07:07:56;11.05;;;3.65;;
59790;SDS011;47431;51.640;5.554;2022-09-09T07:10:21;15.87;;;4.37;;
59790;SDS011;47431;51.640;5.554;2022-09-09T07:12:51;13.35;;;4.68;;
59790;SDS011;47431;51.640;5.554;2022-09-09T07:15:17;15.30;;;4.18;;
59790;SDS011;47431;51.640;5.554;2022-09-09T07:17:43;10.40;;;3.65;;
59790;SDS011;47431;51.640;5.554;2022-09-09T07:20:08;11.82;;;3.80;;
59790;SDS011;47431;51.640;5.554;2022-09-09T07:22:34;10.65;;;3.05;;
59790;SDS011;47431;51.640;5.554;2022-09-09T07:24:59;13.32;;;3.72;;
59790;SDS011;47431;51.640;5.554;2022-09-09T07:27:24;11.32;;;3.50;;
59790;SDS011;47431;51.640;5.554;2022-09-09T07:29:50;14.38;;;3.22;;
59790;SDS011;47431;51.640;5.554;2022-09-09T07:32:15;11.63;;;3.40;;
59790;SDS011;47431;51.640;5.554;2022-09-09T07:34:40;17.27;;;3.53;;
59790;SDS011;47431;51.640;5.554;2022-09-09T07:37:05;13.05;;;3.17;;
59790;SDS011;47431;51.640;5.554;2022-09-09T07:39:30;17.55;;;4.43;;
59790;SDS011;47431;51.640;5.554;2022-09-09T07:41:56;10.48;;;3.63;;
59790;SDS011;47431;51.640;5.554;2022-09-09T07:44:22;10.63;;;3.50;;
59790;SDS011;47431;51.640;5.554;2022-09-09T07:46:47;13.80;;;3.75;;
59790;SDS011;47431;51.640;5.554;2022-09-09T07:49:13;11.50;;;3.10;;
59790;SDS011;47431;51.640;5.554;2022-09-09T07:51:40;15.40;;;4.10;;
59790;SDS011;47431;51.640;5.554;2022-09-09T07:54:06;10.60;;;3.60;;
59790;SDS011;47431;51.640;5.554;2022-09-09T07:56:34;15.70;;;3.97;;
59790;SDS011;47431;51.640;5.554;2022-09-09T07:59:00;13.25;;;3.17;;
59790;SDS011;47431;51.640;5.554;2022-09-09T08:01:30;15.57;;;3.78;;
59790;SDS011;47431;51.640;5.554;2022-09-09T08:04:02;8.70;;;2.47;;
59790;SDS011;47431;51.640;5.554;2022-09-09T08:06:32;13.00;;;2.92;;
59790;SDS011;47431;51.640;5.554;2022-09-09T08:08:58;8.30;;;2.58;;
59790;SDS011;47431;51.640;5.554;2022-09-09T08:11:24;11.20;;;2.97;;
59790;SDS011;47431;51.640;5.554;2022-09-09T08:13:50;9.75;;;2.58;;
59790;SDS011;47431;51.640;5.554;2022-09-09T08:16:20;8.13;;;2.38;;
59790;SDS011;47431;51.640;5.554;2022-09-09T08:18:47;12.68;;;3.20;;
59790;SDS011;47431;51.640;5.554;2022-09-09T08:21:13;10.07;;;2.38;;
59790;SDS011;47431;51.640;5.554;2022-09-09T08:23:42;7.63;;;2.25;;
59790;SDS011;47431;51.640;5.554;2022-09-09T08:26:15;11.48;;;2.53;;
59790;SDS011;47431;51.640;5.554;2022-09-09T08:28:40;9.57;;;3.15;;
59790;SDS011;47431;51.640;5.554;2022-09-09T08:31:10;13.10;;;2.67;;
59790;SDS011;47431;51.640;5.554;2022-09-09T08:33:36;13.75;;;3.35;;
59790;SDS011;47431;51.640;5.554;2022-09-09T08:36:03;10.93;;;2.38;;
59790;SDS011;47431;51.640;5.554;2022-09-09T08:38:28;12.10;;;3.22;;
59790;SDS011;47431;51.640;5.554;2022-09-09T08:40:54;13.38;;;3.05;;
59790;SDS011;47431;51.640;5.554;2022-09-09T08:43:24;8.20;;;2.63;;
59790;SDS011;47431;51.640;5.554;2022-09-09T08:45:58;8.00;;;2.58;;
59790;SDS011;47431;51.640;5.554;2022-09-09T08:48:48;10.98;;;3.22;;
59790;SDS011;47431;51.640;5.554;2022-09-09T08:51:14;9.50;;;2.63;;
59790;SDS011;47431;51.640;5.554;2022-09-09T08:53:43;10.25;;;3.17;;
59790;SDS011;47431;51.640;5.554;2022-09-09T08:56:11;9.25;;;3.05;;
59790;SDS011;47431;51.640;5.554;2022-09-09T08:58:47;6.65;;;1.90;;
59790;SDS011;47431;51.640;5.554;2022-09-09T09:09:07;8.88;;;2.75;;
59790;SDS011;47431;51.640;5.554;2022-09-09T09:11:37;7.45;;;2.78;;
59790;SDS011;47431;51.640;5.554;2022-09-09T09:14:03;13.00;;;3.45;;
59790;SDS011;47431;51.640;5.554;2022-09-09T09:16:32;11.18;;;3.13;;
59790;SDS011;47431;51.640;5.554;2022-09-09T09:18:58;9.15;;;2.10;;
59790;SDS011;47431;51.640;5.554;2022-09-09T09:23:56;14.60;;;3.60;;
59790;SDS011;47431;51.640;5.554;2022-09-09T09:28:47;12.40;;;3.00;;
59790;SDS011;47431;51.640;5.554;2022-09-09T09:31:12;10.15;;;2.03;;
59790;SDS011;47431;51.640;5.554;2022-09-09T09:33:43;9.50;;;2.33;;
59790;SDS011;47431;51.640;5.554;2022-09-09T09:36:11;6.25;;;2.38;;
59790;SDS011;47431;51.640;5.554;2022-09-09T09:38:38;7.60;;;2.25;;
59790;SDS011;47431;51.640;5.554;2022-09-09T09:41:04;7.63;;;2.70;;
59790;SDS011;47431;51.640;5.554;2022-09-09T09:43:31;12.68;;;2.85;;
59790;SDS011;47431;51.640;5.554;2022-09-09T09:45:56;9.75;;;2.38;;
59790;SDS011;47431;51.640;5.554;2022-09-09T09:48:22;18.98;;;3.17;;
59790;SDS011;47431;51.640;5.554;2022-09-09T09:50:52;10.73;;;2.70;;
59790;SDS011;47431;51.640;5.554;2022-09-09T09:53:22;12.55;;;2.42;;
59790;SDS011;47431;51.640;5.554;2022-09-09T09:55:53;13.23;;;2.92;;
59790;SDS011;47431;51.640;5.554;2022-09-09T09:58:19;7.53;;;2.38;;
59790;SDS011;47431;51.640;5.554;2022-09-09T10:00:48;8.10;;;2.50;;
59790;SDS011;47431;51.640;5.554;2022-09-09T10:03:30;12.18;;;2.63;;
59790;SDS011;47431;51.640;5.554;2022-09-09T10:05:55;10.00;;;2.42;;
59790;SDS011;47431;51.640;5.554;2022-09-09T10:08:24;11.32;;;2.60;;
59790;SDS011;47431;51.640;5.554;2022-09-09T10:10:59;9.68;;;2.72;;
59790;SDS011;47431;51.640;5.554;2022-09-09T10:16:18;10.27;;;2.75;;
59790;SDS011;47431;51.640;5.554;2022-09-09T10:18:59;8.57;;;2.45;;
59790;SDS011;47431;51.640;5.554;2022-09-09T10:29:03;10.15;;;2.47;;
59790;SDS011;47431;51.640;5.554;2022-09-09T10:31:37;8.38;;;2.65;;
59790;SDS011;47431;51.640;5.554;2022-09-09T10:34:10;8.07;;;2.65;;
59790;SDS011;47431;51.640;5.554;2022-09-09T10:36:39;11.43;;;3.17;;
59790;SDS011;47431;51.640;5.554;2022-09-09T10:44:25;13.45;;;3.35;;
59790;SDS011;47431;51.640;5.554;2022-09-09T10:52:15;10.82;;;2.60;;
59790;SDS011;47431;51.640;5.554;2022-09-09T10:54:56;13.27;;;3.38;;
59790;SDS011;47431;51.640;5.554;2022-09-09T10:59:53;10.73;;;3.00;;
59790;SDS011;47431;51.640;5.554;2022-09-09T11:02:31;8.30;;;3.33;;
59790;SDS011;47431;51.640;5.554;2022-09-09T11:05:08;13.85;;;3.47;;
59790;SDS011;47431;51.640;5.554;2022-09-09T11:07:37;13.75;;;3.80;;
59790;SDS011;47431;51.640;5.554;2022-09-09T11:10:20;11.60;;;3.83;;
59790;SDS011;47431;51.640;5.554;2022-09-09T11:12:49;12.43;;;3.28;;
59790;SDS011;47431;51.640;5.554;2022-09-09T11:17:46;11.18;;;3.78;;
59790;SDS011;47431;51.640;5.554;2022-09-09T11:20:14;9.55;;;3.10;;
59790;SDS011;47431;51.640;5.554;2022-09-09T11:22:44;7.53;;;3.22;;
59790;SDS011;47431;51.640;5.554;2022-09-09T11:36:05;9.75;;;3.13;;
59790;SDS011;47431;51.640;5.554;2022-09-09T11:38:52;9.52;;;3.55;;
59790;SDS011;47431;51.640;5.554;2022-09-09T11:41:18;9.10;;;3.00;;
59790;SDS011;47431;51.640;5.554;2022-09-09T11:43:46;10.73;;;3.00;;
59790;SDS011;47431;51.640;5.554;2022-09-09T11:46:13;7.15;;;2.92;;
59790;SDS011;47431;51.640;5.554;2022-09-09T11:48:41;8.63;;;3.00;;
59790;SDS011;47431;51.640;5.554;2022-09-09T11:53:54;11.98;;;3.35;;
59790;SDS011;47431;51.640;5.554;2022-09-09T11:56:27;10.70;;;2.70;;
59790;SDS011;47431;51.640;5.554;2022-09-09T11:58:54;6.47;;;2.22;;
59790;SDS011;47431;51.640;5.554;2022-09-09T12:11:44;8.50;;;2.55;;
59790;SDS011;47431;51.640;5.554;2022-09-09T12:14:20;8.48;;;3.25;;
59790;SDS011;47431;51.640;5.554;2022-09-09T12:16:46;8.15;;;2.60;;
59790;SDS011;47431;51.640;5.554;2022-09-09T12:21:42;10.32;;;2.45;;
59790;SDS011;47431;51.640;5.554;2022-09-09T12:26:34;6.55;;;2.40;;
59790;SDS011;47431;51.640;5.554;2022-09-09T12:34:18;6.50;;;2.47;;
59790;SDS011;47431;51.640;5.554;2022-09-09T12:36:51;8.77;;;2.63;;
59790;SDS011;47431;51.640;5.554;2022-09-09T12:39:28;5.85;;;2.92;;
59790;SDS011;47431;51.640;5.554;2022-09-09T12:41:55;7.40;;;2.08;;
59790;SDS011;47431;51.640;5.554;2022-09-09T12:44:35;5.60;;;1.70;;
59790;SDS011;47431;51.640;5.554;2022-09-09T12:47:01;4.97;;;1.95;;
59790;SDS011;47431;51.640;5.554;2022-09-09T12:49:29;7.07;;;2.50;;
59790;SDS011;47431;51.640;5.554;2022-09-09T12:51:58;5.43;;;2.17;;
59790;SDS011;47431;51.640;5.554;2022-09-09T12:54:25;10.20;;;2.90;;
59790;SDS011;47431;51.640;5.554;2022-09-09T12:56:50;6.63;;;2.17;;
59790;SDS011;47431;51.640;5.554;2022-09-09T12:59:35;9.68;;;2.53;;
59790;SDS011;47431;51.640;5.554;2022-09-09T13:02:01;6.50;;;2.25;;
59790;SDS011;47431;51.640;5.554;2022-09-09T13:04:26;7.20;;;1.63;;
59790;SDS011;47431;51.640;5.554;2022-09-09T13:06:52;18.60;;;2.63;;
59790;SDS011;47431;51.640;5.554;2022-09-09T13:09:17;20.70;;;3.40;;
59790;SDS011;47431;51.640;5.554;2022-09-09T13:11:44;17.45;;;3.03;;
59790;SDS011;47431;51.640;5.554;2022-09-09T13:14:15;11.57;;;3.15;;
59790;SDS011;47431;51.640;5.554;2022-09-09T13:16:43;18.50;;;3.92;;
59790;SDS011;47431;51.640;5.554;2022-09-09T13:19:09;13.20;;;4.18;;
59790;SDS011;47431;51.640;5.554;2022-09-09T13:21:38;13.40;;;3.28;;
59790;SDS011;47431;51.640;5.554;2022-09-09T13:24:07;10.13;;;2.97;;
59790;SDS011;47431;51.640;5.554;2022-09-09T13:26:53;9.73;;;2.97;;
59790;SDS011;47431;51.640;5.554;2022-09-09T13:29:19;11.38;;;4.20;;
59790;SDS011;47431;51.640;5.554;2022-09-09T13:31:44;10.52;;;3.22;;
59790;SDS011;47431;51.640;5.554;2022-09-09T13:34:11;9.55;;;3.50;;
59790;SDS011;47431;51.640;5.554;2022-09-09T13:36:36;6.88;;;3.53;;
59790;SDS011;47431;51.640;5.554;2022-09-09T13:39:02;7.70;;;3.67;;
59790;SDS011;47431;51.640;5.554;2022-09-09T13:41:42;6.68;;;3.22;;
59790;SDS011;47431;51.640;5.554;2022-09-09T13:44:23;12.35;;;3.63;;
59790;SDS011;47431;51.640;5.554;2022-09-09T13:46:59;13.20;;;4.32;;
59790;SDS011;47431;51.640;5.554;2022-09-09T13:49:24;13.63;;;3.75;;
59790;SDS011;47431;51.640;5.554;2022-09-09T13:52:02;11.63;;;4.07;;
59790;SDS011;47431;51.640;5.554;2022-09-09T13:54:27;11.52;;;4.32;;
59790;SDS011;47431;51.640;5.554;2022-09-09T13:56:52;10.60;;;3.17;;
59790;SDS011;47431;51.640;5.554;2022-09-09T13:59:19;8.93;;;2.92;;
59790;SDS011;47431;51.640;5.554;2022-09-09T14:01:49;8.18;;;3.03;;
59790;SDS011;47431;51.640;5.554;2022-09-09T14:04:14;7.72;;;2.90;;
59790;SDS011;47431;51.640;5.554;2022-09-09T14:06:40;14.27;;;3.78;;
59790;SDS011;47431;51.640;5.554;2022-09-09T14:09:06;10.25;;;3.03;;
59790;SDS011;47431;51.640;5.554;2022-09-09T14:11:32;6.65;;;2.83;;
59790;SDS011;47431;51.640;5.554;2022-09-09T14:13:57;9.73;;;2.90;;
59790;SDS011;47431;51.640;5.554;2022-09-09T14:16:22;6.45;;;2.25;;
59790;SDS011;47431;51.640;5.554;2022-09-09T14:18:47;5.10;;;1.93;;
59790;SDS011;47431;51.640;5.554;2022-09-09T14:21:13;7.45;;;2.38;;
59790;SDS011;47431;51.640;5.554;2022-09-09T14:23:39;9.00;;;2.50;;
59790;SDS011;47431;51.640;5.554;2022-09-09T14:26:07;8.05;;;2.45;;
59790;SDS011;47431;51.640;5.554;2022-09-09T14:28:33;6.35;;;2.40;;
59790;SDS011;47431;51.640;5.554;2022-09-09T14:31:01;12.27;;;2.90;;
59790;SDS011;47431;51.640;5.554;2022-09-09T14:33:27;10.82;;;2.95;;
59790;SDS011;47431;51.640;5.554;2022-09-09T14:35:56;12.73;;;3.47;;
59790;SDS011;47431;51.640;5.554;2022-09-09T14:38:22;8.52;;;2.83;;
59790;SDS011;47431;51.640;5.554;2022-09-09T14:40:47;11.70;;;2.45;;
59790;SDS011;47431;51.640;5.554;2022-09-09T14:43:12;7.80;;;1.93;;
59790;SDS011;47431;51.640;5.554;2022-09-09T14:45:38;8.18;;;2.55;;
59790;SDS011;47431;51.640;5.554;2022-09-09T14:48:03;7.83;;;2.17;;
59790;SDS011;47431;51.640;5.554;2022-09-09T14:50:29;5.25;;;2.20;;
59790;SDS011;47431;51.640;5.554;2022-09-09T14:52:54;9.50;;;2.50;;
59790;SDS011;47431;51.640;5.554;2022-09-09T14:55:20;5.27;;;2.20;;
59790;SDS011;47431;51.640;5.554;2022-09-09T14:57:46;9.05;;;2.53;;
59790;SDS011;47431;51.640;5.554;2022-09-09T15:00:11;6.60;;;2.25;;
59790;SDS011;47431;51.640;5.554;2022-09-09T15:02:38;6.22;;;2.22;;
59790;SDS011;47431;51.640;5.554;2022-09-09T15:05:04;15.18;;;3.67;;
59790;SDS011;47431;51.640;5.554;2022-09-09T15:07:29;25.05;;;4.20;;
59790;SDS011;47431;51.640;5.554;2022-09-09T15:09:56;45.83;;;5.47;;
59790;SDS011;47431;51.640;5.554;2022-09-09T15:12:22;11.85;;;3.03;;
59790;SDS011;47431;51.640;5.554;2022-09-09T15:14:47;7.55;;;2.20;;
59790;SDS011;47431;51.640;5.554;2022-09-09T15:17:13;6.43;;;2.30;;
59790;SDS011;47431;51.640;5.554;2022-09-09T15:19:38;18.45;;;3.92;;
59790;SDS011;47431;51.640;5.554;2022-09-09T15:22:04;21.85;;;3.72;;
59790;SDS011;47431;51.640;5.554;2022-09-09T15:24:30;25.90;;;3.85;;
59790;SDS011;47431;51.640;5.554;2022-09-09T15:26:56;39.67;;;4.15;;
59790;SDS011;47431;51.640;5.554;2022-09-09T15:29:22;11.52;;;3.45;;
59790;SDS011;47431;51.640;5.554;2022-09-09T15:31:48;7.82;;;2.58;;
59790;SDS011;47431;51.640;5.554;2022-09-09T15:34:14;8.33;;;2.87;;
59790;SDS011;47431;51.640;5.554;2022-09-09T15:36:43;11.07;;;2.85;;
59790;SDS011;47431;51.640;5.554;2022-09-09T15:39:09;23.15;;;4.13;;
59790;SDS011;47431;51.640;5.554;2022-09-09T15:41:37;20.60;;;3.25;;
59790;SDS011;47431;51.640;5.554;2022-09-09T15:44:02;8.63;;;3.63;;
59790;SDS011;47431;51.640;5.554;2022-09-09T15:48:56;6.45;;;3.25;;
59790;SDS011;47431;51.640;5.554;2022-09-09T15:51:23;13.77;;;3.83;;
59790;SDS011;47431;51.640;5.554;2022-09-09T15:53:48;14.93;;;3.60;;
59790;SDS011;47431;51.640;5.554;2022-09-09T15:56:13;8.10;;;2.92;;
59790;SDS011;47431;51.640;5.554;2022-09-09T15:58:39;12.90;;;2.97;;
59790;SDS011;47431;51.640;5.554;2022-09-09T16:01:05;9.88;;;3.10;;
59790;SDS011;47431;51.640;5.554;2022-09-09T16:03:35;8.02;;;3.05;;
59790;SDS011;47431;51.640;5.554;2022-09-09T16:06:01;4.78;;;2.97;;
59790;SDS011;47431;51.640;5.554;2022-09-09T16:08:36;6.57;;;3.03;;
59790;SDS011;47431;51.640;5.554;2022-09-09T16:13:53;6.28;;;2.63;;
59790;SDS011;47431;51.640;5.554;2022-09-09T16:16:20;8.60;;;3.08;;
59790;SDS011;47431;51.640;5.554;2022-09-09T16:18:47;6.07;;;3.28;;
59790;SDS011;47431;51.640;5.554;2022-09-09T16:21:14;7.25;;;3.67;;
59790;SDS011;47431;51.640;5.554;2022-09-09T16:23:40;5.32;;;2.75;;
59790;SDS011;47431;51.640;5.554;2022-09-09T16:26:05;6.22;;;2.72;;
59790;SDS011;47431;51.640;5.554;2022-09-09T16:28:30;9.97;;;3.67;;
59790;SDS011;47431;51.640;5.554;2022-09-09T16:30:55;5.55;;;3.03;;
59790;SDS011;47431;51.640;5.554;2022-09-09T16:33:20;5.80;;;2.83;;
59790;SDS011;47431;51.640;5.554;2022-09-09T16:35:46;5.70;;;3.30;;
59790;SDS011;47431;51.640;5.554;2022-09-09T16:38:11;6.45;;;3.15;;
59790;SDS011;47431;51.640;5.554;2022-09-09T16:40:37;5.00;;;2.90;;
59790;SDS011;47431;51.640;5.554;2022-09-09T16:43:03;6.90;;;3.47;;
59790;SDS011;47431;51.640;5.554;2022-09-09T16:45:28;10.45;;;3.83;;
59790;SDS011;47431;51.640;5.554;2022-09-09T16:47:54;8.18;;;5.15;;
59790;SDS011;47431;51.640;5.554;2022-09-09T16:50:19;9.25;;;4.40;;
59790;SDS011;47431;51.640;5.554;2022-09-09T16:52:44;12.80;;;5.53;;
59790;SDS011;47431;51.640;5.554;2022-09-09T16:55:10;9.52;;;5.15;;